»·PEaware :: WAT169 KSNA-KSLC

WAT169 :: KSNA-KSLC

FLIGHT INFORMATION

Flight Status: Arrived
Operator: Unknown
More flights by this operator :: More flights under this callsign
Pilot: Marty P. (27464)
Aircraft: BOMBARDIER BD-100 CHALLENGER 300
(CL30)
More flights by this aircraft type
Origin: KSNA John Wayne-Orange Co
United States
Destination: KSLC Salt Lake City Intl
United States
More flights between these airports :: More routes between these airports
Route: +FINZZ2 BEALE Q842 WINEN MLF QWENN5
File this flight plan on PilotEdge
Remarks:
Altitude:
(Current/Filed)
39,000ft
Speed:
(Current/Filed)
470kts
Departed: 24-Mar-20 08:46 PM
Arrived: 24-Mar-20 10:03 PM
Distance/Time
Traveled:
511nm/1:17
Distance/Time
To Go:
Arrived

Flight Plot

Page will automatically refresh every two minutes.

Flight plan parsing failed; only flown route is shown


Map Options




Map Legend


Flown Route
Filed Route
Departure Airport
Arrival Airport
Navaid (VOR, NDB)
Fix

Horizontal Profiles

Position Reports

Time Latitude Longitude Heading Altitude Ground
Speed
24-Mar-20 20:17 33.674978 -117.865011 118 63ft 0kts
24-Mar-20 20:18 33.674978 -117.865011 118 63ft 0kts
24-Mar-20 20:19 33.674978 -117.865011 118 63ft 0kts
24-Mar-20 20:20 33.674978 -117.865011 118 63ft 0kts
24-Mar-20 20:21 33.674978 -117.865011 118 63ft 0kts
24-Mar-20 20:22 33.674978 -117.865011 118 63ft 0kts
24-Mar-20 20:23 33.674978 -117.865011 118 63ft 0kts
24-Mar-20 20:24 33.674978 -117.865011 118 63ft 0kts
24-Mar-20 20:25 33.674978 -117.865011 118 63ft 0kts
24-Mar-20 20:26 33.674978 -117.865011 118 63ft 0kts
24-Mar-20 20:27 33.674978 -117.865011 118 63ft 0kts
24-Mar-20 20:29 33.674978 -117.865011 118 63ft 0kts
24-Mar-20 20:30 33.674978 -117.865011 118 63ft 0kts
24-Mar-20 20:31 33.674978 -117.865011 118 63ft 0kts
24-Mar-20 20:32 33.674978 -117.865011 118 63ft 0kts
24-Mar-20 20:33 33.674978 -117.865011 118 63ft 0kts
24-Mar-20 20:34 33.674978 -117.865011 118 63ft 0kts
24-Mar-20 20:35 33.674978 -117.865011 118 63ft 0kts
24-Mar-20 20:36 33.674978 -117.865011 118 63ft 0kts
24-Mar-20 20:37 33.674978 -117.865011 118 63ft 0kts
24-Mar-20 20:38 33.674978 -117.865011 118 63ft 0kts
24-Mar-20 20:39 33.675139 -117.865298 124 63ft 2kts
24-Mar-20 20:40 33.675302 -117.865724 30 63ft 0kts
24-Mar-20 20:41 33.675271 -117.865744 27 62ft 0kts
24-Mar-20 20:42 33.675610 -117.865518 27 62ft 0kts
24-Mar-20 20:43 33.678910 -117.863428 27 62ft 22kts
24-Mar-20 20:44 33.680671 -117.863119 299 62ft 0kts
24-Mar-20 20:45 33.681361 -117.864683 297 62ft 15kts
24-Mar-20 20:46 33.655648 -117.881075 208 1429ft 158kts
24-Mar-20 20:47 33.609366 -117.892154 191 3562ft 172kts
24-Mar-20 20:47 33.569902 -117.903438 220 5126ft 177kts
24-Mar-20 20:49 33.526104 -117.950955 223 7392ft 193kts
24-Mar-20 20:50 33.490517 -117.992056 246 11505ft 167kts
24-Mar-20 20:50 33.515660 -118.045978 304 12893ft 278kts
24-Mar-20 20:51 33.568969 -118.114004 313 16761ft 289kts
24-Mar-20 20:53 33.674396 -118.080626 18 18862ft 375kts
24-Mar-20 20:53 33.753735 -118.033946 16 21090ft 396kts
24-Mar-20 20:54 33.853753 -117.975483 15 23634ft 413kts
24-Mar-20 20:55 33.951248 -117.903524 28 26207ft 432kts
24-Mar-20 20:56 34.048911 -117.814391 29 28134ft 451kts
24-Mar-20 20:57 34.137547 -117.706019 47 29797ft 478kts
24-Mar-20 20:58 34.222452 -117.579899 46 31437ft 491kts
24-Mar-20 20:59 34.309454 -117.450220 46 32911ft 503kts
24-Mar-20 21:00 34.397307 -117.318819 46 34249ft 514kts
24-Mar-20 21:01 34.488038 -117.182595 47 35548ft 519kts
24-Mar-20 21:02 34.580486 -117.045365 46 36676ft 526kts
24-Mar-20 21:03 34.675893 -116.906186 46 37436ft 536kts
24-Mar-20 21:04 34.771895 -116.765603 47 38527ft 541kts
24-Mar-20 21:05 34.869371 -116.624447 43 39079ft 541kts
24-Mar-20 21:06 34.971580 -116.487793 43 39079ft 541kts
24-Mar-20 21:07 35.073235 -116.351358 43 39076ft 542kts
24-Mar-20 21:08 35.173311 -116.216597 44 39049ft 558kts
24-Mar-20 21:09 35.280398 -116.071714 44 39054ft 583kts
24-Mar-20 21:10 35.391296 -115.921057 43 39084ft 599kts
24-Mar-20 21:11 35.502347 -115.769501 43 39052ft 590kts
24-Mar-20 21:12 35.612547 -115.618460 43 39029ft 592kts
24-Mar-20 21:13 35.722893 -115.466511 43 39034ft 592kts
24-Mar-20 21:14 35.831358 -115.316479 44 39014ft 592kts
24-Mar-20 21:15 35.940844 -115.164327 44 39019ft 592kts
24-Mar-20 21:16 36.049475 -115.012647 43 39011ft 591kts
24-Mar-20 21:17 36.156778 -114.864382 37 38983ft 586kts
24-Mar-20 21:18 36.288634 -114.756960 19 38991ft 567kts
24-Mar-20 21:19 36.427428 -114.663801 18 38990ft 565kts
24-Mar-20 21:20 36.566921 -114.570735 18 38993ft 564kts
24-Mar-20 21:21 36.704866 -114.478391 18 38996ft 563kts
24-Mar-20 21:22 36.839741 -114.373517 23 39012ft 569kts
24-Mar-20 21:23 36.972719 -114.268902 23 39003ft 569kts
24-Mar-20 21:24 37.105763 -114.163819 23 39010ft 569kts
24-Mar-20 21:25 37.239485 -114.057740 23 39001ft 568kts
24-Mar-20 21:26 37.373663 -113.950845 23 38990ft 568kts
24-Mar-20 21:27 37.507017 -113.844158 23 38994ft 567kts
24-Mar-20 21:28 37.640511 -113.736895 23 38998ft 567kts
24-Mar-20 21:29 37.773744 -113.629384 24 39002ft 566kts
24-Mar-20 21:30 37.907612 -113.520809 25 39006ft 569kts
24-Mar-20 21:31 38.030549 -113.389672 34 39011ft 578kts
24-Mar-20 21:32 38.147004 -113.257923 35 38977ft 567kts
24-Mar-20 21:33 38.265299 -113.122517 35 38985ft 571kts
24-Mar-20 21:34 38.390123 -113.002103 16 38994ft 548kts
24-Mar-20 21:35 38.529759 -112.923308 12 38992ft 542kts
24-Mar-20 21:36 38.667966 -112.848950 10 37547ft 528kts
24-Mar-20 21:37 38.801455 -112.777173 8 35619ft 508kts
24-Mar-20 21:38 38.930252 -112.707689 7 33622ft 493kts
24-Mar-20 21:39 39.055094 -112.640106 7 31691ft 474kts
24-Mar-20 21:40 39.173846 -112.575587 8 29406ft 458kts
24-Mar-20 21:41 39.290161 -112.512130 9 27945ft 443kts
24-Mar-20 21:42 39.403274 -112.447638 11 26688ft 434kts
24-Mar-20 21:43 39.513013 -112.384563 12 25493ft 422kts
24-Mar-20 21:44 39.618637 -112.323667 14 24151ft 410kts
24-Mar-20 21:45 39.721556 -112.264115 15 21888ft 394kts
24-Mar-20 21:46 39.819915 -112.207050 17 19679ft 376kts
24-Mar-20 21:47 39.916514 -112.150874 19 16137ft 388kts
24-Mar-20 21:48 40.008714 -112.096124 19 14927ft 329kts
24-Mar-20 21:49 40.092283 -112.045744 21 12540ft 316kts
24-Mar-20 21:50 40.163680 -112.002490 20 11536ft 277kts
24-Mar-20 21:51 40.233361 -111.960243 21 10364ft 279kts
24-Mar-20 21:52 40.309361 -111.936395 358 10892ft 272kts
24-Mar-20 21:53 40.378711 -111.929189 357 10878ft 224kts
24-Mar-20 21:54 40.439361 -111.934280 346 10867ft 211kts
24-Mar-20 21:55 40.498760 -111.941255 347 9260ft 212kts
24-Mar-20 21:56 40.557697 -111.948224 350 7294ft 204kts
24-Mar-20 21:57 40.608791 -111.953947 351 5948ft 177kts
24-Mar-20 21:58 40.651588 -111.958883 352 5900ft 141kts
24-Mar-20 21:59 40.691757 -111.963562 350 5902ft 157kts
24-Mar-20 22:00 40.732174 -111.968206 350 5102ft 131kts
24-Mar-20 22:01 40.766974 -111.972238 354 4428ft 120kts
24-Mar-20 22:02 40.787080 -111.975196 328 4234ft 12kts
24-Mar-20 22:03 40.787886 -111.976182 283 4234ft 7kts
24-Mar-20 22:04 40.788193 -111.978012 267 4234ft 0kts

Navigation Log

Ident Type
Flight plan parsing failed, navigation log unavailable